createdAt,value
2018-01-17T16:20:09.378Z,85.83
2018-01-17T16:22:37.696Z,85.83
2018-01-17T16:25:06.805Z,86.46
2018-01-17T16:27:35.122Z,86.95
2018-01-17T16:30:03.478Z,86.93
2018-01-17T16:32:31.781Z,87.42
2018-01-17T16:35:00.178Z,87.65
2018-01-17T16:37:28.496Z,88.12
2018-01-17T16:39:56.837Z,88.52
2018-01-17T16:42:25.254Z,88.90
2018-01-17T16:44:54.358Z,89.39
2018-01-17T16:47:22.686Z,89.80
2018-01-17T16:49:51.024Z,90.20
2018-01-17T16:52:19.340Z,90.45
2018-01-17T16:54:47.672Z,90.43
2018-01-17T16:57:15.981Z,90.57
2018-01-17T16:59:44.318Z,90.81
2018-01-17T17:02:12.631Z,90.61
2018-01-17T17:04:41.055Z,90.38
2018-01-17T17:07:09.509Z,90.11
2018-01-17T17:09:37.837Z,89.77
2018-01-17T17:12:06.145Z,89.37
2018-01-17T17:14:34.477Z,89.30
2018-01-17T17:17:02.789Z,89.19
2018-01-17T17:19:31.118Z,88.96
2018-01-17T17:21:59.430Z,89.32
2018-01-17T17:24:27.757Z,89.41
2018-01-17T17:26:56.061Z,89.42
2018-01-17T17:29:24.401Z,89.66
2018-01-17T17:31:52.710Z,89.71
2018-01-17T17:34:21.041Z,89.34
2018-01-17T17:36:49.378Z,89.42
2018-01-17T17:39:17.697Z,89.72
2018-01-17T17:41:46.009Z,89.68
2018-01-17T17:44:14.341Z,89.89
2018-01-17T17:46:42.654Z,89.86
2018-01-17T17:49:10.988Z,89.75
2018-01-17T17:51:39.293Z,89.47
2018-01-17T17:54:07.632Z,89.58
2018-01-17T17:56:35.957Z,89.53
2018-01-17T17:59:04.262Z,89.48
2018-01-17T18:01:32.589Z,89.42
2018-01-17T18:04:00.938Z,89.19
2018-01-17T18:06:29.261Z,89.21
2018-01-17T18:08:57.576Z,89.10
2018-01-17T18:11:25.914Z,88.75
2018-01-17T18:13:54.222Z,88.40
2018-01-17T18:16:22.555Z,87.96
2018-01-17T18:18:50.868Z,87.79
2018-01-17T18:21:19.196Z,87.41
2018-01-17T18:23:47.510Z,87.36
2018-01-17T18:26:16.813Z,87.37
2018-01-17T18:28:45.138Z,87.43
2018-01-17T18:31:13.465Z,87.41
2018-01-17T18:33:41.791Z,87.48
2018-01-17T18:36:10.121Z,87.63
2018-01-17T18:38:38.442Z,87.76
2018-01-17T18:41:06.779Z,87.62
2018-01-17T18:43:35.094Z,87.50
2018-01-17T18:46:03.534Z,86.83
2018-01-17T18:48:31.856Z,86.39
2018-01-17T18:51:00.193Z,86.37
2018-01-17T18:53:28.506Z,86.62
2018-01-17T18:55:56.870Z,87.04
2018-01-17T18:58:25.197Z,86.82
2018-01-17T19:00:53.534Z,87.09
2018-01-17T19:03:21.853Z,87.06
2018-01-17T19:05:51.172Z,87.19
2018-01-17T19:08:19.490Z,87.93
2018-01-17T19:10:48.237Z,88.24
2018-01-17T19:13:16.587Z,88.49
2018-01-17T19:15:45.894Z,89.10
2018-01-17T19:18:14.210Z,89.21
2018-01-17T19:20:42.550Z,89.39
2018-01-17T19:23:10.866Z,89.78
2018-01-17T19:25:39.208Z,90.01
2018-01-17T19:28:07.579Z,90.13
2018-01-17T19:30:35.865Z,89.92
2018-01-17T19:33:04.178Z,90.20
2018-01-17T19:35:32.520Z,90.73
2018-01-17T19:38:00.838Z,90.22
2018-01-17T19:40:29.180Z,89.82
2018-01-17T19:42:57.494Z,89.95
2018-01-17T19:45:25.829Z,89.32
2018-01-17T19:47:54.154Z,89.02
2018-01-17T19:50:22.490Z,88.96
2018-01-17T19:52:50.810Z,88.55
2018-01-17T19:55:19.145Z,88.14
2018-01-17T19:57:47.474Z,88.04
2018-01-17T20:00:15.860Z,88.30
2018-01-17T20:02:44.143Z,87.94
2018-01-17T20:05:12.461Z,88.07
2018-01-17T20:07:40.797Z,88.96
2018-01-17T20:10:09.117Z,89.87
2018-01-17T20:12:37.450Z,90.78
2018-01-17T20:15:05.762Z,91.69
2018-01-17T20:17:34.103Z,92.18
2018-01-17T20:20:02.423Z,92.79
2018-01-17T20:22:36.330Z,93.37
2018-01-17T20:25:04.646Z,94.10
2018-01-17T20:27:32.994Z,94.80
2018-01-17T20:30:01.312Z,95.14
2018-01-17T20:32:29.633Z,95.28
2018-01-17T20:34:57.945Z,95.51
2018-01-17T20:37:26.278Z,95.71
2018-01-17T20:39:55.149Z,95.79
2018-01-17T20:42:23.535Z,95.73
2018-01-17T20:44:51.833Z,95.63
2018-01-17T20:47:20.169Z,95.61
2018-01-17T20:49:48.538Z,95.32
2018-01-17T20:52:16.821Z,95.44
2018-01-17T20:54:45.137Z,95.56
2018-01-17T20:57:13.479Z,95.43
2018-01-17T20:59:41.788Z,95.22
2018-01-17T21:02:11.007Z,95.26
2018-01-17T21:04:39.327Z,95.27
2018-01-17T21:07:07.666Z,95.19
2018-01-17T21:09:35.989Z,95.06
2018-01-17T21:12:04.323Z,94.95
2018-01-17T21:14:32.655Z,94.83
2018-01-17T21:17:01.865Z,94.41
2018-01-17T21:19:30.181Z,93.98
2018-01-17T21:21:58.521Z,93.82
2018-01-17T21:24:27.537Z,93.88
2018-01-17T21:26:55.877Z,93.86
2018-01-17T21:29:24.194Z,93.79
2018-01-17T21:31:52.533Z,93.95
2018-01-17T21:34:20.849Z,94.02
2018-01-17T21:36:49.181Z,94.24
2018-01-17T21:39:17.501Z,94.26
2018-01-17T21:41:46.143Z,94.27
2018-01-17T21:44:20.269Z,94.36
2018-01-17T21:46:48.598Z,94.38
2018-01-17T21:49:16.909Z,94.54
2018-01-17T21:51:45.246Z,94.78
2018-01-17T21:54:13.568Z,94.65
2018-01-17T21:56:41.902Z,94.67
2018-01-17T21:59:10.218Z,94.59
2018-01-17T22:01:38.553Z,94.64
2018-01-17T22:04:06.874Z,94.38
2018-01-17T22:06:35.209Z,94.17
2018-01-17T22:09:03.534Z,94.22
2018-01-17T22:11:31.873Z,93.98
2018-01-17T22:14:00.186Z,93.72
2018-01-17T22:16:28.497Z,93.67
2018-01-17T22:18:56.839Z,93.58
2018-01-17T22:21:25.154Z,93.22
2018-01-17T22:23:53.498Z,93.28
2018-01-17T22:26:21.805Z,93.03
2018-01-17T22:28:50.142Z,92.77
2018-01-17T22:31:18.462Z,92.67
2018-01-17T22:33:46.799Z,92.34
2018-01-17T22:36:15.118Z,92.30
2018-01-17T22:38:43.454Z,91.92
2018-01-17T22:41:11.770Z,91.93
2018-01-17T22:43:40.114Z,91.96
2018-01-17T22:46:09.325Z,91.74
2018-01-17T22:48:37.662Z,91.83
2018-01-17T22:51:05.978Z,91.53
2018-01-17T22:53:34.318Z,91.47
2018-01-17T22:56:02.638Z,91.72
2018-01-17T22:58:30.974Z,91.54
2018-01-17T23:00:59.294Z,90.88
2018-01-17T23:03:27.642Z,91.12
2018-01-17T23:05:55.952Z,91.06
2018-01-17T23:08:24.289Z,90.88
2018-01-17T23:10:52.605Z,90.93
2018-01-17T23:13:20.943Z,90.50
2018-01-17T23:15:49.253Z,90.40
2018-01-17T23:18:17.585Z,90.43
2018-01-17T23:20:45.903Z,90.51
2018-01-17T23:23:14.232Z,90.46
2018-01-17T23:25:42.547Z,90.10
2018-01-17T23:28:10.880Z,90.15
2018-01-17T23:30:39.189Z,89.25
2018-01-17T23:33:07.525Z,88.87
2018-01-17T23:35:35.838Z,89.31
2018-01-17T23:38:04.201Z,89.39
2018-01-17T23:40:32.487Z,89.58
2018-01-17T23:43:00.821Z,89.64
2018-01-17T23:45:29.802Z,89.86
2018-01-17T23:47:58.137Z,89.55
2018-01-17T23:50:26.449Z,89.00
2018-01-17T23:52:54.785Z,89.17
2018-01-17T23:55:23.093Z,89.11
2018-01-17T23:57:51.430Z,88.72
